St. LLORENÇ del MUNT i l'OBAC -La Mata (Bages)





Hora UTC 08:55
Temperatura 22.0 ºC
Humitat 59.3 %
Pressió 1016.9 hPa
Pluja 0.0 mm
Velocitat vent 15.2 km/h
Direcció vent ESE
Radiació solar 717.3 W/m²
Fuel 33.5 %

Dades diàries 2024-06-18



Hora UTC (hivern +1h; estiu +2h)
Temperatura (ºC) Humitat (%) Pressió (hPa) Velocitat vent (km/h) Precipitació (mm) Fuel (%) Radiació solar (W/m²)
Hora UTC Aire Humitat Pressió Vel. Dir. Vel. Max Dir. Intent. màx 5 min. Fuel Rad. Sol.
00:05 16.7 74.0 1017.9 12.6 SSE 12.6 SSE 0.0 47.2 0.1
00:10 16.6 73.3 1017.9 12.5 SSE 22.2 ESE 0.0 47.2 0.1
00:15 16.5 73.2 1017.8 12.6 SSE 26.1 SE 0.0 47.3 0.1
00:20 16.6 72.4 1017.8 14.6 SE 22.2 ESE 0.0 47.3 0.1
00:25 16.7 71.8 1017.7 14.6 SE 22.2 SE 0.0 47.4 0.1
00:30 16.8 71.8 1017.7 16.0 SE 24.3 SE 0.0 47.5 0.1
00:35 16.8 72.4 1017.6 17.0 SE 27.2 ESE 0.0 47.6 0.1
00:40 17.0 71.4 1017.6 16.5 SE 23.6 SE 0.0 47.6 0.1
00:45 17.0 71.1 1017.6 15.7 SE 21.9 SSE 0.0 47.6 0.1
00:50 17.0 71.2 1017.5 17.5 SSE 31.4 SE 0.0 47.6 0.1
00:55 17.2 70.2 1017.5 19.2 SE 28.9 SE 0.0 47.8 0.1
01:00 17.5 69.5 1017.5 18.3 SE 29.6 SE 0.0 47.9 0.1
01:05 17.4 69.8 1017.5 16.6 SE 26.8 SE 0.0 47.7 0.1
01:10 17.4 70.1 1017.5 14.3 SSE 26.8 SE 0.0 47.7 0.1
01:15 17.3 70.2 1017.4 11.3 SSE 16.6 SSE 0.0 47.5 0.1
01:20 17.1 71.0 1017.4 13.2 SSE 22.6 SE 0.0 47.6 0.1
01:25 17.1 71.2 1017.3 12.6 SSE 19.8 SE 0.0 47.6 0.1
01:30 17.1 71.3 1017.3 12.0 S 19.1 S 0.0 47.7 0.1
01:35 17.1 71.6 1017.2 12.8 SSE 20.5 SSE 0.0 47.8 0.1
01:40 17.1 71.8 1017.2 12.6 SSE 19.1 SSE 0.0 47.9 0.1
01:45 17.2 72.5 1017.2 11.5 SSE 18.4 SSE 0.0 48.0 0.1
01:50 17.2 73.1 1017.2 13.3 SE 20.5 SE 0.0 48.1 0.1
01:55 17.3 73.2 1017.2 13.0 SE 20.1 ESE 0.0 48.4 0.1
02:00 17.3 75.1 1017.1 12.6 SE 19.4 SE 0.0 48.7 0.1
02:05 17.2 76.8 1017.0 11.8 ESE 16.9 SE 0.0 49.0 0.1
02:10 17.1 77.3 1016.9 10.8 ESE 18.4 ESE 0.0 49.3 0.1
02:15 17.1 77.5 1016.9 11.6 ESE 19.8 ESE 0.0 49.5 0.1
02:20 17.1 77.6 1016.9 8.7 ESE 16.6 ESE 0.0 49.7 0.1
02:25 17.1 78.0 1016.8 7.8 ESE 13.4 ESE 0.0 49.9 0.1
02:30 17.0 78.5 1016.8 8.2 ESE 12.0 ESE 0.0 50.2 0.1
02:35 17.0 78.9 1016.7 10.0 ESE 15.9 ESE 0.0 50.5 0.1
02:40 17.0 79.1 1016.7 10.0 ESE 14.5 ESE 0.0 50.7 0.1
02:45 17.0 78.8 1016.7 8.4 ESE 12.7 ESE 0.0 50.9 0.1
02:50 17.0 78.9 1016.8 8.1 ESE 12.4 ESE 0.0 51.1 0.1
02:55 17.0 78.7 1016.8 6.7 E 10.2 ESE 0.0 51.3 0.1
03:00 16.9 78.8 1016.8 6.3 E 8.8 ESE 0.0 51.5 0.1
03:05 16.8 79.3 1016.8 5.6 E 8.8 E 0.0 51.6 0.1
03:10 16.7 79.5 1016.7 7.7 E 13.1 E 0.0 51.9 0.1
03:15 16.8 79.5 1016.8 8.8 ESE 12.7 E 0.0 52.2 0.1
03:20 16.8 79.3 1016.8 9.2 ESE 13.8 SE 0.0 52.4 0.1
03:25 17.0 79.3 1016.7 9.1 E 13.4 E 0.0 52.7 0.1
03:30 16.9 78.8 1016.7 9.0 E 13.4 ENE 0.0 52.8 0.1
03:35 16.9 78.8 1016.6 6.5 E 12.7 ESE 0.0 52.9 0.1
03:40 16.8 79.1 1016.6 5.8 ENE 9.5 ENE 0.0 53.0 0.1
03:45 16.6 79.8 1016.6 8.0 E 12.4 ESE 0.0 53.2 0.1
03:50 16.6 79.9 1016.6 4.3 E 10.9 E 0.0 53.5 0.2
03:55 16.5 80.1 1016.6 3.2 NE 7.8 NE 0.0 53.7 0.2
04:00 16.4 80.0 1016.6 4.3 NNE 9.2 NNE 0.0 53.8 0.2
04:05 16.4 79.3 1016.5 5.3 NNE 11.6 NE 0.0 53.8 0.6
04:10 16.3 78.7 1016.4 9.5 NE 12.4 NE 0.0 53.8 1.3
04:15 16.3 78.2 1016.4 7.6 NE 12.4 NE 0.0 53.8 2.5
04:20 16.2 77.5 1016.5 7.4 NE 10.9 NE 0.0 53.7 4.2
04:25 16.1 77.4 1016.4 2.4 NE 5.3 ENE 0.0 53.6 6.2
04:30 16.0 77.7 1016.4 2.1 NE 5.6 NE 0.0 53.7 8.8
04:35 16.1 77.3 1016.4 1.8 SSW 5.6 ENE 0.0 53.8 11.9
04:40 16.2 76.8 1016.3 3.7 E 9.2 E 0.0 53.8 18.6
04:45 16.4 76.2 1016.3 6.9 E 15.5 E 0.0 53.9 36.0
04:50 16.6 75.6 1016.3 9.8 E 16.6 E 0.0 54.0 46.7
04:55 17.2 74.6 1016.4 10.3 ESE 16.9 E 0.0 54.3 58.5
05:00 17.5 73.0 1016.4 9.1 ESE 17.3 ESE 0.0 54.3 70.7
05:05 17.7 72.9 1016.4 8.7 ESE 15.2 E 0.0 54.3 82.6
05:10 17.8 74.3 1016.4 10.9 ESE 17.6 ESE 0.0 54.4 94.1
05:15 17.8 72.0 1016.4 12.7 ESE 20.1 SE 0.0 54.2 106.3
05:20 17.8 70.6 1016.4 15.0 ESE 23.3 ESE 0.0 54.0 119.1
05:25 17.9 70.2 1016.5 13.7 E 22.9 ESE 0.0 54.0 132.2
05:30 18.0 69.2 1016.5 15.7 E 22.2 E 0.0 53.8 144.9
05:35 18.0 68.9 1016.6 16.0 ESE 27.9 ESE 0.0 53.3 158.7
05:40 18.0 69.1 1016.6 15.9 E 23.3 E 0.0 52.9 172.2
05:45 18.1 70.5 1016.7 14.0 ESE 22.2 ESE 0.0 52.6 185.0
05:50 18.2 70.9 1016.7 13.7 ESE 21.9 E 0.0 52.3 198.5
05:55 18.2 68.1 1016.8 15.9 ESE 25.4 ESE 0.0 51.7 212.2
06:00 18.2 66.4 1016.8 17.9 ESE 26.5 E 0.0 50.9 228.4
06:05 18.3 65.4 1016.8 19.2 ESE 27.9 SE 0.0 50.3 243.9
06:10 18.4 65.7 1016.9 16.7 ESE 26.5 ESE 0.0 49.9 260.3
06:15 18.6 64.6 1016.9 16.1 ESE 25.4 ESE 0.0 49.4 275.5
06:20 18.7 63.4 1016.9 17.5 ESE 29.3 ESE 0.0 48.9 292.3
06:25 18.8 63.8 1016.9 18.0 ESE 25.8 E 0.0 48.3 300.4
06:30 18.8 63.8 1016.9 19.2 ESE 27.9 ESE 0.0 47.7 323.2
06:35 18.9 64.2 1016.9 19.6 ESE 28.6 ESE 0.0 47.4 339.0
06:40 18.9 64.1 1016.9 22.2 ESE 33.9 ESE 0.0 46.8 351.7
06:45 18.9 65.4 1016.9 18.8 E 28.2 E 0.0 46.5 371.7
06:50 18.9 66.0 1016.9 20.6 ESE 34.6 E 0.0 46.0 386.2
06:55 18.8 67.9 1016.9 21.4 E 33.9 ESE 0.0 45.6 401.5
07:00 18.8 67.6 1016.9 20.1 E 34.2 ESE 0.0 45.3 415.3
07:05 19.0 66.7 1016.9 19.7 ESE 31.1 E 0.0 44.9 429.1
07:10 19.1 66.6 1016.9 18.0 ESE 31.8 ESE 0.0 44.5 443.0
07:15 19.4 66.0 1017.0 18.4 ESE 28.6 ESE 0.0 44.3 457.2
07:20 19.5 65.7 1016.9 15.2 ESE 29.6 ESE 0.0 43.9 472.0
07:25 20.0 65.8 1016.9 12.3 E 23.3 ENE 0.0 43.7 487.1
07:30 20.3 64.6 1016.9 12.8 E 26.5 ENE 0.0 43.2 501.6
07:35 20.4 63.3 1016.9 12.9 E 26.5 SE 0.0 42.6 516.3
07:40 20.4 63.1 1016.9 14.6 E 25.8 ESE 0.0 42.0 530.7
07:45 20.6 62.7 1016.8 13.5 ENE 25.8 ENE 0.0 41.5 547.0
07:50 20.8 63.5 1016.8 11.0 ENE 24.3 ENE 0.0 41.0 563.4
07:55 20.9 61.5 1016.7 12.5 ENE 22.9 NE 0.0 40.4 577.7
08:00 21.1 62.6 1016.8 10.7 E 20.1 ENE 0.0 40.0 591.5
08:05 21.7 61.3 1016.9 9.3 E 21.9 E 0.0 39.8 604.1
08:10 22.0 58.7 1017.0 10.4 ESE 24.0 ESE 0.0 39.0 615.9
08:15 22.3 58.1 1016.9 8.7 ESE 19.1 ESE 0.0 38.6 630.3
08:20 22.5 55.6 1016.9 11.7 E 21.9 E 0.0 37.8 640.1
08:25 22.4 56.7 1016.9 9.6 ESE 21.5 ESE 0.0 37.0 652.2
08:30 22.4 58.0 1016.9 10.3 ESE 21.9 SE 0.0 36.3 663.1
08:35 22.2 57.7 1016.9 14.4 ESE 26.1 ESE 0.0 35.5 674.3
08:40 21.9 57.5 1016.8 15.1 ESE 28.9 E 0.0 34.8 685.8
08:45 22.1 58.8 1016.8 15.1 ESE 26.1 E 0.0 34.5 696.4
08:50 22.0 58.4 1016.8 21.9 E 33.2 ESE 0.0 33.9 706.4
08:55 22.0 59.3 1016.9 15.2 ESE 29.6 ESE 0.0 33.5 717.3
Màxima 22.6 80.1 1017.9 22.2 ESE 34.6 E 0.0 54.4 717.3
Mínima 16.0 55.6 1016.3 33.5
Total 0.0